createdAt,value
2019-06-26T00:02:08.769Z,4.12
2019-06-26T00:04:36.994Z,3.95
2019-06-26T00:07:05.241Z,3.80
2019-06-26T00:09:33.477Z,4.00
2019-06-26T00:12:01.722Z,3.90
2019-06-26T00:14:29.949Z,3.83
2019-06-26T00:16:58.181Z,4.20
2019-06-26T00:19:26.412Z,3.90
2019-06-26T00:21:54.699Z,4.62
2019-06-26T00:24:22.928Z,3.98
2019-06-26T00:26:51.149Z,4.10
2019-06-26T00:29:19.735Z,4.08
2019-06-26T00:31:47.877Z,4.55
2019-06-26T00:34:16.089Z,4.75
2019-06-26T00:36:44.297Z,4.47
2019-06-26T00:39:12.521Z,4.37
2019-06-26T00:41:40.770Z,4.40
2019-06-26T00:44:09.020Z,4.30
2019-06-26T00:46:37.167Z,4.47
2019-06-26T00:49:05.406Z,4.45
2019-06-26T00:51:33.684Z,4.42
2019-06-26T00:54:01.923Z,4.75
2019-06-26T00:56:30.130Z,4.80
2019-06-26T00:58:58.369Z,4.20
2019-06-26T01:01:26.507Z,4.05
2019-06-26T01:03:56.355Z,4.17
2019-06-26T01:06:42.409Z,4.12
2019-06-26T01:09:11.180Z,4.55
2019-06-26T01:11:39.387Z,4.33
2019-06-26T01:14:07.581Z,4.62
2019-06-26T01:16:35.749Z,5.03
2019-06-26T01:19:04.762Z,4.83
2019-06-26T01:21:33.816Z,4.60
2019-06-26T01:24:02.133Z,4.97
2019-06-26T01:26:30.329Z,4.55
2019-06-26T01:29:01.039Z,4.75
2019-06-26T01:31:29.262Z,4.35
2019-06-26T01:33:57.515Z,4.70
2019-06-26T01:36:25.779Z,5.30
2019-06-26T01:38:54.050Z,4.95
2019-06-26T01:41:22.188Z,5.08
2019-06-26T01:43:50.465Z,4.42
2019-06-26T01:46:18.655Z,4.90
2019-06-26T01:48:46.796Z,4.83
2019-06-26T01:51:14.973Z,4.62
2019-06-26T01:53:43.213Z,4.00
2019-06-26T01:56:11.442Z,4.55
2019-06-26T01:58:39.732Z,4.85
2019-06-26T02:01:07.970Z,4.67
2019-06-26T02:03:36.197Z,4.92
2019-06-26T02:06:04.489Z,4.37
2019-06-26T02:08:32.687Z,4.45
2019-06-26T02:11:00.857Z,4.83
2019-06-26T02:13:29.811Z,4.72
2019-06-26T02:15:58.021Z,4.45
2019-06-26T02:18:33.645Z,4.58
2019-06-26T02:21:01.932Z,4.72
2019-06-26T02:23:30.273Z,4.87
2019-06-26T02:25:58.596Z,4.75
2019-06-26T02:28:26.788Z,5.33
2019-06-26T02:30:55.100Z,4.08
2019-06-26T02:33:23.357Z,4.20
2019-06-26T02:35:51.550Z,5.00
2019-06-26T02:38:19.750Z,4.72
2019-06-26T02:40:47.922Z,4.80
2019-06-26T02:43:16.392Z,4.53
2019-06-26T02:45:44.529Z,4.67
2019-06-26T02:48:12.809Z,5.03
2019-06-26T02:50:41.012Z,4.87
2019-06-26T02:53:09.313Z,4.95
2019-06-26T02:55:37.536Z,5.05
2019-06-26T02:58:05.805Z,5.10
2019-06-26T03:00:34.038Z,5.08
2019-06-26T03:03:02.311Z,5.17
2019-06-26T03:05:30.511Z,5.17
2019-06-26T03:07:58.651Z,5.60
2019-06-26T03:10:26.814Z,5.58
2019-06-26T03:12:55.019Z,5.33
2019-06-26T03:15:23.223Z,5.10
2019-06-26T03:17:55.769Z,5.12
2019-06-26T03:20:23.039Z,5.20
2019-06-26T03:22:51.220Z,5.90
2019-06-26T03:25:19.489Z,5.20
2019-06-26T03:27:47.734Z,5.47
2019-06-26T03:30:16.040Z,5.40
2019-06-26T03:32:44.268Z,5.15
2019-06-26T03:35:12.649Z,5.20
2019-06-26T03:37:40.896Z,5.15
2019-06-26T03:40:09.203Z,5.78
2019-06-26T03:42:37.446Z,5.62
2019-06-26T03:45:06.260Z,5.72
2019-06-26T03:47:34.525Z,5.47
2019-06-26T03:50:03.704Z,5.42
2019-06-26T03:52:31.897Z,5.80
2019-06-26T03:55:00.190Z,6.03
2019-06-26T03:57:28.391Z,5.70
2019-06-26T03:59:56.552Z,6.35
2019-06-26T04:02:24.797Z,5.25
2019-06-26T04:04:53.054Z,5.75
2019-06-26T04:07:21.376Z,6.17
2019-06-26T04:09:49.974Z,5.97
2019-06-26T04:12:18.117Z,6.28
2019-06-26T04:14:46.351Z,5.92
2019-06-26T04:17:14.585Z,5.83
2019-06-26T04:19:42.809Z,6.08
2019-06-26T04:22:11.058Z,6.42
2019-06-26T04:24:39.516Z,7.03
2019-06-26T04:27:07.647Z,6.58
2019-06-26T04:29:35.828Z,6.90
2019-06-26T04:32:04.099Z,6.00
2019-06-26T04:34:32.304Z,7.22
2019-06-26T04:37:00.449Z,7.22
2019-06-26T04:39:28.692Z,7.50
2019-06-26T04:41:56.905Z,7.03
2019-06-26T04:44:25.113Z,6.80
2019-06-26T04:46:53.339Z,7.67
2019-06-26T04:49:21.949Z,7.42
2019-06-26T04:51:50.165Z,7.08
2019-06-26T04:54:18.402Z,7.42
2019-06-26T04:56:46.543Z,7.67
2019-06-26T04:59:14.756Z,8.38
2019-06-26T05:01:42.935Z,7.97
2019-06-26T05:04:11.199Z,8.03
2019-06-26T05:06:39.356Z,8.10
2019-06-26T05:09:07.764Z,7.65
2019-06-26T05:11:35.904Z,8.38
2019-06-26T05:14:04.519Z,8.38
2019-06-26T05:16:33.227Z,8.43
2019-06-26T05:19:01.370Z,8.30
2019-06-26T05:21:29.708Z,8.13
2019-06-26T05:23:57.949Z,9.28
2019-06-26T05:26:26.170Z,8.58
2019-06-26T05:28:54.305Z,8.90
2019-06-26T05:31:22.549Z,7.10
2019-06-26T05:33:50.763Z,9.45
2019-06-26T05:36:19.016Z,9.35
2019-06-26T05:38:48.056Z,10.20
2019-06-26T05:41:16.263Z,8.45
2019-06-26T05:43:44.540Z,8.35
2019-06-26T05:46:12.739Z,8.08
2019-06-26T05:48:43.847Z,9.13
2019-06-26T05:51:12.118Z,8.65
2019-06-26T05:53:40.277Z,8.60
2019-06-26T05:56:08.487Z,8.38
2019-06-26T05:58:36.750Z,8.28
2019-06-26T06:01:05.035Z,8.63
2019-06-26T06:03:33.235Z,9.05
2019-06-26T06:06:01.502Z,9.58
2019-06-26T06:08:29.700Z,8.73
2019-06-26T06:10:58.341Z,9.15
2019-06-26T06:13:26.810Z,9.50
2019-06-26T06:15:54.954Z,9.90
2019-06-26T06:18:23.163Z,9.50
2019-06-26T06:20:51.405Z,8.88
2019-06-26T06:23:19.617Z,9.60
2019-06-26T06:25:47.827Z,9.10
2019-06-26T06:28:16.066Z,9.95
2019-06-26T06:30:45.833Z,9.98
2019-06-26T06:33:14.031Z,9.30
2019-06-26T06:35:42.216Z,9.45
2019-06-26T06:38:10.425Z,10.25
2019-06-26T06:40:38.636Z,10.00
2019-06-26T06:43:06.792Z,9.73
2019-06-26T06:45:35.023Z,10.72
2019-06-26T06:48:03.314Z,10.48
2019-06-26T06:50:31.558Z,10.65
2019-06-26T06:52:59.777Z,10.48
2019-06-26T06:55:27.942Z,10.38
2019-06-26T06:57:56.176Z,10.20
2019-06-26T07:00:24.580Z,11.48
2019-06-26T07:02:52.734Z,11.25
2019-06-26T07:05:21.044Z,11.90
2019-06-26T07:07:49.306Z,10.65
2019-06-26T07:10:17.880Z,10.55
2019-06-26T07:12:46.140Z,11.73
2019-06-26T07:15:15.824Z,12.13
2019-06-26T07:17:44.056Z,11.33
2019-06-26T07:20:12.595Z,12.10
2019-06-26T07:22:40.807Z,11.10
2019-06-26T07:25:09.324Z,11.20
2019-06-26T07:27:38.072Z,11.80
2019-06-26T07:30:06.984Z,12.03
2019-06-26T07:32:35.436Z,13.00
2019-06-26T07:35:04.758Z,12.30
2019-06-26T07:37:33.251Z,11.93
2019-06-26T07:40:02.373Z,12.28
2019-06-26T07:42:30.938Z,11.50
2019-06-26T07:44:59.091Z,11.70
2019-06-26T07:47:41.998Z,11.70
2019-06-26T07:49:57.199Z,13.40
2019-06-26T07:52:25.337Z,11.73
2019-06-26T07:54:53.562Z,10.75
2019-06-26T07:57:21.804Z,10.68
2019-06-26T07:59:49.946Z,12.05
2019-06-26T08:02:18.086Z,11.65
2019-06-26T08:04:46.328Z,12.55
2019-06-26T08:07:14.458Z,12.93
2019-06-26T08:09:42.655Z,12.65
2019-06-26T08:12:10.956Z,12.93
2019-06-26T08:14:39.183Z,11.90
2019-06-26T08:17:07.337Z,12.40
2019-06-26T08:19:35.602Z,12.37
2019-06-26T08:22:03.800Z,12.53
2019-06-26T08:24:31.947Z,12.53
2019-06-26T08:27:00.519Z,12.65
2019-06-26T08:29:28.651Z,12.80
2019-06-26T08:31:56.809Z,13.38
2019-06-26T08:34:25.043Z,13.78
2019-06-26T08:36:53.216Z,12.47
2019-06-26T08:39:21.429Z,13.32
2019-06-26T08:41:49.666Z,13.40
2019-06-26T08:44:17.804Z,13.30
2019-06-26T08:46:46.029Z,13.20
2019-06-26T08:49:24.950Z,13.25
2019-06-26T08:51:44.141Z,12.75
2019-06-26T08:54:12.356Z,13.65
2019-06-26T08:56:40.598Z,13.90
2019-06-26T08:59:08.821Z,14.15
2019-06-26T09:01:37.045Z,13.30
2019-06-26T09:04:05.305Z,13.90
2019-06-26T09:06:33.515Z,13.43
2019-06-26T09:09:01.719Z,14.40
2019-06-26T09:11:29.903Z,13.43
2019-06-26T09:13:58.115Z,13.38
2019-06-26T09:16:26.344Z,11.97
2019-06-26T09:18:54.595Z,12.00
2019-06-26T09:21:22.818Z,12.07
2019-06-26T09:23:51.031Z,12.03
2019-06-26T09:26:19.288Z,12.18
2019-06-26T09:28:47.517Z,11.93
2019-06-26T09:31:15.711Z,10.82
2019-06-26T09:33:43.903Z,11.00
2019-06-26T09:36:12.119Z,11.00
2019-06-26T09:38:40.349Z,11.53
2019-06-26T09:41:08.767Z,11.80
2019-06-26T09:43:36.900Z,11.93
2019-06-26T09:46:05.109Z,12.10
2019-06-26T09:48:33.355Z,12.93
2019-06-26T09:51:01.506Z,12.93
2019-06-26T09:53:42.648Z,13.18
2019-06-26T09:55:59.561Z,13.13
2019-06-26T09:58:27.705Z,13.08
2019-06-26T10:00:55.933Z,13.60
2019-06-26T10:03:24.183Z,13.22
2019-06-26T10:05:52.411Z,12.88
2019-06-26T10:08:20.632Z,13.38
2019-06-26T10:10:48.881Z,13.38
2019-06-26T10:13:17.018Z,12.35
2019-06-26T10:15:45.159Z,12.25
2019-06-26T10:18:13.357Z,12.05
2019-06-26T10:20:41.928Z,12.55
2019-06-26T10:23:10.069Z,11.93
2019-06-26T10:25:38.304Z,12.58
2019-06-26T10:28:06.517Z,12.63
2019-06-26T10:30:34.652Z,12.18
2019-06-26T10:33:02.842Z,12.50
2019-06-26T10:35:31.033Z,11.65
2019-06-26T10:37:59.205Z,12.53
2019-06-26T10:40:27.831Z,13.30
2019-06-26T10:42:56.040Z,11.80
2019-06-26T10:45:24.296Z,12.33
2019-06-26T10:47:52.478Z,11.30
2019-06-26T10:50:20.768Z,11.57
2019-06-26T10:52:48.990Z,10.98
2019-06-26T10:55:17.609Z,11.08
2019-06-26T10:57:45.833Z,10.78
2019-06-26T11:00:14.309Z,10.28
2019-06-26T11:02:42.557Z,10.30
2019-06-26T11:05:11.356Z,10.93
2019-06-26T11:07:39.503Z,11.73
2019-06-26T11:10:09.071Z,10.68
2019-06-26T11:12:37.285Z,10.60
2019-06-26T11:15:09.250Z,9.60
2019-06-26T11:17:37.485Z,10.25
2019-06-26T11:20:07.211Z,9.70
2019-06-26T11:22:35.549Z,10.18
2019-06-26T11:25:04.953Z,9.65
2019-06-26T11:27:33.164Z,10.03
2019-06-26T11:30:01.413Z,9.93
2019-06-26T11:32:30.022Z,9.68
2019-06-26T11:34:58.241Z,11.28
2019-06-26T11:37:26.449Z,11.05
2019-06-26T11:39:54.635Z,10.23
2019-06-26T11:42:22.801Z,9.60
2019-06-26T11:44:51.745Z,9.50
2019-06-26T11:47:19.991Z,9.90
2019-06-26T11:49:59.290Z,10.03
2019-06-26T11:52:18.008Z,10.38
2019-06-26T11:55:01.317Z,10.03
2019-06-26T11:57:16.117Z,9.63
2019-06-26T11:59:44.291Z,9.58
2019-06-26T12:02:12.584Z,9.53
2019-06-26T12:04:40.820Z,9.43
2019-06-26T12:07:09.034Z,9.33
2019-06-26T12:09:37.333Z,9.53
2019-06-26T12:12:05.514Z,9.20
2019-06-26T12:14:33.741Z,10.10
2019-06-26T12:17:01.981Z,9.73
2019-06-26T12:19:30.187Z,10.28
2019-06-26T12:21:58.337Z,9.98
2019-06-26T12:24:26.815Z,10.40
2019-06-26T12:26:55.019Z,10.68
2019-06-26T12:29:23.163Z,11.63
2019-06-26T12:31:51.405Z,11.05
2019-06-26T12:34:19.684Z,10.63
2019-06-26T12:36:47.884Z,10.95
2019-06-26T12:39:16.168Z,11.45
2019-06-26T12:41:44.376Z,11.12
2019-06-26T12:44:12.519Z,11.38
2019-06-26T12:46:41.172Z,11.65
2019-06-26T12:49:09.395Z,12.07
2019-06-26T12:51:37.598Z,11.05
2019-06-26T12:54:06.165Z,10.40
2019-06-26T12:56:34.369Z,10.85
2019-06-26T12:59:02.535Z,11.18
2019-06-26T13:01:30.727Z,10.25
2019-06-26T13:03:58.964Z,10.53
2019-06-26T13:06:27.170Z,10.38
2019-06-26T13:08:55.345Z,11.05
2019-06-26T13:11:23.573Z,10.32
2019-06-26T13:14:02.024Z,12.37
2019-06-26T13:16:21.684Z,13.22
2019-06-26T13:18:49.928Z,13.80
2019-06-26T13:21:18.139Z,10.20
2019-06-26T13:23:46.368Z,9.95
2019-06-26T13:26:14.558Z,9.23
2019-06-26T13:28:42.779Z,9.93
2019-06-26T13:31:11.025Z,9.33
2019-06-26T13:33:39.239Z,9.40
2019-06-26T13:36:07.440Z,9.58
2019-06-26T13:38:35.609Z,9.25
2019-06-26T13:41:03.825Z,9.33
2019-06-26T13:43:32.027Z,8.80
2019-06-26T13:46:01.360Z,8.98
2019-06-26T13:48:29.526Z,8.95
2019-06-26T13:51:08.730Z,9.05
2019-06-26T13:53:27.724Z,9.70
2019-06-26T13:55:55.875Z,10.05
2019-06-26T13:58:24.077Z,8.78
2019-06-26T14:00:52.258Z,9.33
2019-06-26T14:03:20.391Z,8.95
2019-06-26T14:05:48.591Z,9.95
2019-06-26T14:08:16.789Z,9.63
2019-06-26T14:10:44.978Z,9.45
2019-06-26T14:13:13.117Z,9.88
2019-06-26T14:15:41.368Z,8.93
2019-06-26T14:18:09.605Z,8.63
2019-06-26T14:20:37.833Z,9.13
2019-06-26T14:23:06.364Z,9.60
2019-06-26T14:25:34.564Z,8.90
2019-06-26T14:28:02.853Z,10.13
2019-06-26T14:30:31.099Z,10.08
2019-06-26T14:32:59.311Z,9.50
2019-06-26T14:35:27.450Z,10.53
2019-06-26T14:37:55.689Z,11.80
2019-06-26T14:40:23.907Z,10.28
2019-06-26T14:42:52.108Z,10.30
2019-06-26T14:45:20.360Z,10.50
2019-06-26T14:47:48.579Z,10.53
2019-06-26T14:50:17.369Z,11.10
2019-06-26T14:52:46.175Z,11.97
2019-06-26T14:55:14.800Z,10.98
2019-06-26T14:57:42.940Z,11.68
2019-06-26T15:00:11.598Z,12.30
2019-06-26T15:02:39.851Z,11.55
2019-06-26T15:05:08.300Z,10.63
2019-06-26T15:07:36.547Z,11.38
2019-06-26T15:10:08.179Z,11.45
2019-06-26T15:12:36.495Z,12.85
2019-06-26T15:15:06.199Z,12.37
2019-06-26T15:17:34.433Z,12.75
2019-06-26T15:20:03.214Z,12.50
2019-06-26T15:22:31.418Z,12.88
2019-06-26T15:24:59.666Z,12.98
2019-06-26T15:27:27.884Z,13.45
2019-06-26T15:29:56.142Z,13.50
2019-06-26T15:32:24.346Z,14.33
2019-06-26T15:34:52.545Z,15.10
2019-06-26T15:37:20.834Z,14.70
2019-06-26T15:39:49.113Z,15.15
2019-06-26T15:42:17.322Z,15.38
2019-06-26T15:44:45.584Z,16.02
2019-06-26T15:47:13.836Z,15.00
2019-06-26T15:49:42.069Z,15.75
2019-06-26T15:52:14.828Z,15.85
2019-06-26T15:54:40.205Z,15.18
2019-06-26T15:57:08.482Z,15.10
2019-06-26T15:59:36.762Z,15.93
2019-06-26T16:02:04.953Z,15.93
2019-06-26T16:04:35.236Z,15.50
2019-06-26T16:07:03.175Z,16.37
2019-06-26T16:09:31.384Z,15.13
2019-06-26T16:11:59.649Z,14.60
2019-06-26T16:14:27.941Z,14.33
2019-06-26T16:16:57.808Z,15.30
2019-06-26T16:19:26.094Z,15.53
2019-06-26T16:21:54.396Z,14.68
2019-06-26T16:24:22.631Z,14.68
2019-06-26T16:26:50.849Z,15.08
2019-06-26T16:29:19.132Z,14.55
2019-06-26T16:31:48.152Z,15.00
2019-06-26T16:34:16.445Z,14.30
2019-06-26T16:36:44.679Z,14.83
2019-06-26T16:39:12.916Z,14.53
2019-06-26T16:41:41.186Z,14.33
2019-06-26T16:44:09.436Z,14.47
2019-06-26T16:46:37.828Z,13.68
2019-06-26T16:49:06.370Z,14.03
2019-06-26T16:51:34.679Z,13.98
2019-06-26T16:54:02.905Z,13.60
2019-06-26T16:56:31.442Z,14.90
2019-06-26T16:58:59.836Z,14.40
2019-06-26T17:01:28.506Z,13.70
2019-06-26T17:03:56.765Z,13.62
2019-06-26T17:06:25.550Z,14.47
2019-06-26T17:08:53.709Z,14.58
2019-06-26T17:11:22.061Z,13.32
2019-06-26T17:13:50.297Z,13.65
2019-06-26T17:16:18.517Z,13.88
2019-06-26T17:18:46.679Z,14.47
2019-06-26T17:21:14.878Z,14.30
2019-06-26T17:23:43.125Z,14.65
2019-06-26T17:26:11.368Z,14.83
2019-06-26T17:28:39.542Z,13.50
2019-06-26T17:31:07.903Z,14.30
2019-06-26T17:33:36.120Z,14.30
2019-06-26T17:36:04.688Z,13.75
2019-06-26T17:38:33.012Z,14.70
2019-06-26T17:41:01.291Z,14.18
2019-06-26T17:43:29.528Z,14.60
2019-06-26T17:45:57.793Z,14.90
2019-06-26T17:48:26.053Z,15.05
2019-06-26T17:50:54.526Z,14.05
2019-06-26T17:53:22.796Z,14.73
2019-06-26T17:55:51.359Z,14.73
2019-06-26T17:58:19.582Z,13.83
2019-06-26T18:00:47.891Z,14.78
2019-06-26T18:03:16.134Z,15.88
2019-06-26T18:05:44.341Z,16.07
2019-06-26T18:08:12.827Z,15.05
2019-06-26T18:10:41.101Z,15.35
2019-06-26T18:13:09.307Z,16.87
2019-06-26T18:15:37.481Z,14.40
2019-06-26T18:18:05.772Z,15.63
2019-06-26T18:20:34.001Z,15.60
2019-06-26T18:23:06.906Z,15.45
2019-06-26T18:25:32.164Z,15.70
2019-06-26T18:28:00.419Z,16.45
2019-06-26T18:30:28.830Z,15.18
2019-06-26T18:32:57.106Z,15.53
2019-06-26T18:35:25.369Z,15.53
2019-06-26T18:37:53.593Z,15.18
2019-06-26T18:40:21.860Z,15.85
2019-06-26T18:42:50.113Z,17.23
2019-06-26T18:45:18.413Z,16.35
2019-06-26T18:47:46.698Z,15.85
2019-06-26T18:50:15.004Z,15.55
2019-06-26T18:52:43.432Z,15.45
2019-06-26T18:55:11.982Z,14.80
2019-06-26T18:57:40.304Z,14.95
2019-06-26T19:00:08.738Z,15.00
2019-06-26T19:02:37.018Z,16.15
2019-06-26T19:05:08.869Z,15.98
2019-06-26T19:07:37.108Z,16.90
2019-06-26T19:10:08.729Z,17.05
2019-06-26T19:12:37.053Z,15.45
2019-06-26T19:15:05.761Z,15.95
2019-06-26T19:17:34.068Z,15.23
2019-06-26T19:20:02.378Z,15.48
2019-06-26T19:22:30.620Z,16.80
2019-06-26T19:24:58.921Z,16.40
2019-06-26T19:27:27.142Z,15.63
2019-06-26T19:29:55.396Z,15.95
2019-06-26T19:32:23.662Z,15.90
2019-06-26T19:34:51.925Z,16.40
2019-06-26T19:37:20.159Z,15.83
2019-06-26T19:39:48.449Z,15.60
2019-06-26T19:42:16.691Z,15.65
2019-06-26T19:44:44.916Z,16.25
2019-06-26T19:47:13.211Z,15.93
2019-06-26T19:49:41.450Z,15.08
2019-06-26T19:52:09.689Z,14.87
2019-06-26T19:54:38.145Z,14.90
2019-06-26T19:57:06.426Z,14.75
2019-06-26T19:59:34.674Z,14.95
2019-06-26T20:02:02.962Z,14.63
2019-06-26T20:04:31.187Z,14.33
2019-06-26T20:06:59.446Z,14.38
2019-06-26T20:09:27.929Z,14.18
2019-06-26T20:11:56.168Z,14.40
2019-06-26T20:14:24.402Z,13.58
2019-06-26T20:16:52.704Z,13.83
2019-06-26T20:19:20.971Z,13.48
2019-06-26T20:21:49.190Z,14.13
2019-06-26T20:24:17.473Z,13.98
2019-06-26T20:26:45.713Z,12.82
2019-06-26T20:29:13.957Z,13.08
2019-06-26T20:31:42.246Z,13.65
2019-06-26T20:34:10.479Z,13.38
2019-06-26T20:36:38.727Z,13.08
2019-06-26T20:39:07.057Z,12.78
2019-06-26T20:41:35.391Z,12.50
2019-06-26T20:44:03.704Z,16.73
2019-06-26T20:46:31.974Z,12.00
2019-06-26T20:49:01.971Z,12.55
2019-06-26T20:51:30.214Z,12.33
2019-06-26T20:53:58.500Z,12.53
2019-06-26T20:56:28.233Z,13.03
2019-06-26T20:58:56.473Z,11.88
2019-06-26T21:01:25.074Z,11.93
2019-06-26T21:03:53.325Z,11.60
2019-06-26T21:06:21.562Z,13.18
2019-06-26T21:08:49.845Z,12.25
2019-06-26T21:11:18.085Z,12.13
2019-06-26T21:13:46.347Z,12.43
2019-06-26T21:16:14.595Z,12.43
2019-06-26T21:18:42.836Z,12.07
2019-06-26T21:21:11.072Z,12.45
2019-06-26T21:23:39.395Z,12.18
2019-06-26T21:26:07.638Z,13.05
2019-06-26T21:28:35.883Z,11.68
2019-06-26T21:31:04.199Z,12.55
2019-06-26T21:33:32.392Z,11.57
2019-06-26T21:36:00.640Z,11.53
2019-06-26T21:38:28.906Z,11.55
2019-06-26T21:40:57.162Z,11.40
2019-06-26T21:43:25.404Z,11.65
2019-06-26T21:45:53.693Z,11.35
2019-06-26T21:48:21.931Z,11.75
2019-06-26T21:50:50.180Z,11.78
2019-06-26T21:53:18.456Z,12.10
2019-06-26T21:55:46.684Z,11.30
2019-06-26T21:58:15.164Z,10.80
2019-06-26T22:00:43.576Z,10.85
2019-06-26T22:03:12.154Z,11.55
2019-06-26T22:05:40.413Z,12.03
2019-06-26T22:08:08.674Z,10.90
2019-06-26T22:10:36.994Z,10.98
2019-06-26T22:13:05.604Z,10.60
2019-06-26T22:15:33.872Z,11.80
2019-06-26T22:18:02.117Z,10.50
2019-06-26T22:20:30.357Z,10.23
2019-06-26T22:22:58.647Z,11.48
2019-06-26T22:25:26.888Z,11.28
2019-06-26T22:27:55.151Z,10.82
2019-06-26T22:30:23.990Z,10.72
2019-06-26T22:32:52.220Z,10.75
2019-06-26T22:35:20.711Z,10.95
2019-06-26T22:37:48.974Z,10.93
2019-06-26T22:40:17.300Z,11.22
2019-06-26T22:42:45.605Z,10.63
2019-06-26T22:45:14.260Z,10.80
2019-06-26T22:47:42.975Z,10.05
2019-06-26T22:50:11.594Z,11.05
2019-06-26T22:52:39.878Z,10.53
2019-06-26T22:55:08.977Z,11.83
2019-06-26T22:57:37.218Z,11.40
2019-06-26T23:00:06.983Z,9.85
2019-06-26T23:02:35.230Z,10.53
2019-06-26T23:05:04.697Z,10.98
2019-06-26T23:07:33.120Z,9.98
2019-06-26T23:10:01.638Z,10.93
2019-06-26T23:12:30.213Z,11.63
2019-06-26T23:14:58.491Z,11.05
2019-06-26T23:17:26.738Z,11.15
2019-06-26T23:19:54.987Z,10.60
2019-06-26T23:22:23.641Z,11.18
2019-06-26T23:24:51.890Z,10.95
2019-06-26T23:27:20.139Z,11.22
2019-06-26T23:29:49.399Z,10.90
2019-06-26T23:32:17.639Z,10.95
2019-06-26T23:34:45.881Z,11.63
2019-06-26T23:37:14.144Z,11.93
2019-06-26T23:39:42.392Z,10.63
2019-06-26T23:42:10.643Z,10.63
2019-06-26T23:44:38.907Z,11.60
2019-06-26T23:47:07.154Z,11.12
2019-06-26T23:49:35.673Z,11.38
2019-06-26T23:52:04.016Z,10.58
2019-06-26T23:54:32.267Z,11.60
2019-06-26T23:57:00.505Z,11.20
2019-06-26T23:59:28.777Z,10.93
